Terminal Aerodrome Forecast
Issued by NWS

Home | Current Version | Previous Version | Graphics & Text | Print | Product List | Glossary On
Versions: 1 2 3 4 5 6 7 8 9 10 11 12 13 14 15 16 17
572
FTUS43 KMPX 201125
TAFRNH
TAF
KRNH 201125Z 2012/2112 01007KT 5SM -SHSN BKN012
      TEMPO 2012/2014 2SM -SNPL SCT012 OVC025
     FM201400 33008KT P6SM OVC020
     FM202300 30010KT P6SM OVC030
     FM210400 29009KT P6SM BKN040
     FM210800 27008KT P6SM SCT070=

USA.gov is the U.S. government's official web portal to all federal, state and local government web resources and services.